createdAt,value
2023-02-09T00:01:31.051Z,14.40
2023-02-09T00:04:00.503Z,14.32
2023-02-09T00:06:30.073Z,9.43
2023-02-09T00:08:58.951Z,11.75
2023-02-09T00:11:49.074Z,12.15
2023-02-09T00:14:21.527Z,11.63
2023-02-09T00:16:50.736Z,12.90
2023-02-09T00:19:21.228Z,13.50
2023-02-09T00:21:49.667Z,15.60
2023-02-09T00:24:18.087Z,13.65
2023-02-09T00:26:47.025Z,15.38
2023-02-09T00:29:15.409Z,9.73
2023-02-09T00:31:45.000Z,14.95
2023-02-09T00:34:13.269Z,10.27
2023-02-09T00:36:44.014Z,12.73
2023-02-09T00:39:13.106Z,12.73
2023-02-09T00:41:58.450Z,10.90
2023-02-09T00:44:27.434Z,11.68
2023-02-09T00:46:57.875Z,11.48
2023-02-09T00:49:26.146Z,12.75
2023-02-09T00:51:54.213Z,9.85
2023-02-09T00:54:23.110Z,12.68
2023-02-09T00:56:54.157Z,9.13
2023-02-09T00:59:22.731Z,12.45
2023-02-09T01:01:51.657Z,12.00
2023-02-09T01:04:22.641Z,11.98
2023-02-09T01:06:50.577Z,10.68
2023-02-09T01:09:18.732Z,11.27
2023-02-09T01:11:46.871Z,11.20
2023-02-09T01:14:15.778Z,10.90
2023-02-09T01:16:44.743Z,9.60
2023-02-09T01:19:14.710Z,12.15
2023-02-09T01:21:44.427Z,11.48
2023-02-09T01:24:15.604Z,14.35
2023-02-09T01:26:43.937Z,11.32
2023-02-09T01:29:17.228Z,10.82
2023-02-09T01:31:47.609Z,15.98
2023-02-09T01:34:18.311Z,9.10
2023-02-09T01:36:49.572Z,14.10
2023-02-09T01:39:18.033Z,10.27
2023-02-09T01:41:46.472Z,8.10
2023-02-09T01:44:51.770Z,12.30
2023-02-09T01:47:21.485Z,7.40
2023-02-09T01:49:51.842Z,11.32
2023-02-09T01:52:27.611Z,8.20
2023-02-09T01:55:01.369Z,10.73
2023-02-09T02:00:02.722Z,12.27
2023-02-09T02:02:32.762Z,10.23
2023-02-09T02:05:01.271Z,15.43
2023-02-09T02:07:40.071Z,12.52
2023-02-09T02:10:09.042Z,10.40
2023-02-09T02:12:38.380Z,8.13
2023-02-09T02:15:07.516Z,15.25
2023-02-09T02:17:53.171Z,14.80
2023-02-09T02:21:00.635Z,10.07
2023-02-09T02:23:36.675Z,12.30
2023-02-09T02:26:42.330Z,7.38
2023-02-09T02:29:45.184Z,8.20
2023-02-09T02:32:37.319Z,12.20
2023-02-09T02:35:16.232Z,8.98
2023-02-09T02:37:55.802Z,8.45
2023-02-09T02:40:34.329Z,8.85
2023-02-09T02:43:12.786Z,7.13
2023-02-09T02:45:46.344Z,13.00
2023-02-09T02:48:25.133Z,7.68
2023-02-09T02:51:01.068Z,9.88
2023-02-09T02:53:37.559Z,10.10
2023-02-09T02:56:11.368Z,10.80
2023-02-09T03:01:12.405Z,9.95
2023-02-09T03:03:45.124Z,12.50
2023-02-09T03:06:17.174Z,8.95
2023-02-09T03:08:54.465Z,7.63
2023-02-09T03:11:24.893Z,10.52
2023-02-09T03:14:06.728Z,9.80
2023-02-09T03:16:41.633Z,4.80
2023-02-09T03:19:25.401Z,11.82
2023-02-09T03:21:59.910Z,9.15
2023-02-09T03:24:38.225Z,12.07
2023-02-09T03:27:15.158Z,7.88
2023-02-09T03:29:47.418Z,12.60
2023-02-09T03:32:19.189Z,7.65
2023-02-09T03:34:49.067Z,8.80
2023-02-09T03:37:19.278Z,7.70
2023-02-09T03:39:47.635Z,11.05
2023-02-09T03:42:16.123Z,5.05
2023-02-09T03:44:44.701Z,10.32
2023-02-09T03:47:13.694Z,11.90
2023-02-09T03:49:45.876Z,11.93
2023-02-09T03:52:17.342Z,5.93
2023-02-09T03:54:46.209Z,7.93
2023-02-09T03:57:14.181Z,9.20
2023-02-09T03:59:43.891Z,10.63
2023-02-09T04:02:12.688Z,12.32
2023-02-09T04:04:41.187Z,9.13
2023-02-09T04:07:11.496Z,7.53
2023-02-09T04:09:50.377Z,11.45
2023-02-09T04:12:18.579Z,12.77
2023-02-09T04:14:46.576Z,12.82
2023-02-09T04:17:15.472Z,11.10
2023-02-09T04:19:43.761Z,9.20
2023-02-09T04:22:12.254Z,7.63
2023-02-09T04:24:40.349Z,12.48
2023-02-09T04:27:10.556Z,11.38
2023-02-09T04:29:38.826Z,8.85
2023-02-09T04:32:07.595Z,12.60
2023-02-09T04:34:35.824Z,7.65
2023-02-09T04:37:04.293Z,12.52
2023-02-09T04:39:32.465Z,12.30
2023-02-09T04:42:01.350Z,12.35
2023-02-09T04:44:31.132Z,14.10
2023-02-09T04:46:59.733Z,8.45
2023-02-09T04:49:27.735Z,12.48
2023-02-09T04:51:55.836Z,10.93
2023-02-09T04:54:24.066Z,10.57
2023-02-09T04:57:12.156Z,13.73
2023-02-09T04:59:41.933Z,8.27
2023-02-09T05:02:10.119Z,11.13
2023-02-09T05:04:38.427Z,8.35
2023-02-09T05:07:06.392Z,11.00
2023-02-09T05:09:34.626Z,9.45
2023-02-09T05:12:02.748Z,14.52
2023-02-09T05:14:30.764Z,8.52
2023-02-09T05:17:01.073Z,11.18
2023-02-09T05:19:29.357Z,12.55
2023-02-09T05:21:57.569Z,8.77
2023-02-09T05:24:26.008Z,10.48
2023-02-09T05:26:54.076Z,9.50
2023-02-09T05:29:22.379Z,11.35
2023-02-09T05:31:50.396Z,14.10
2023-02-09T05:34:20.770Z,10.85
2023-02-09T05:36:49.248Z,13.48
2023-02-09T05:39:18.264Z,9.90
2023-02-09T05:42:03.608Z,9.02
2023-02-09T05:44:32.128Z,9.23
2023-02-09T05:47:00.259Z,10.80
2023-02-09T05:49:29.998Z,7.43
2023-02-09T05:51:58.400Z,8.45
2023-02-09T05:54:27.557Z,11.82
2023-02-09T05:56:55.848Z,15.18
2023-02-09T05:59:24.531Z,13.00
2023-02-09T06:01:53.245Z,11.35
2023-02-09T06:04:24.055Z,18.65
2023-02-09T06:06:54.869Z,13.30
2023-02-09T06:09:24.101Z,10.95
2023-02-09T06:11:52.763Z,10.30
2023-02-09T06:14:21.912Z,9.90
2023-02-09T06:16:50.080Z,14.85
2023-02-09T06:19:22.036Z,6.57
2023-02-09T06:21:50.929Z,10.07
2023-02-09T06:24:23.464Z,7.20
2023-02-09T06:26:51.661Z,9.10
2023-02-09T06:29:19.869Z,8.25
2023-02-09T06:31:48.313Z,4.63
2023-02-09T06:34:16.471Z,11.25
2023-02-09T06:36:44.692Z,7.13
2023-02-09T06:39:13.168Z,9.50
2023-02-09T06:41:42.972Z,13.80
2023-02-09T06:44:12.169Z,9.40
2023-02-09T06:46:40.594Z,10.05
2023-02-09T06:49:08.794Z,5.47
2023-02-09T06:51:37.189Z,11.73
2023-02-09T06:54:06.027Z,7.88
2023-02-09T06:56:34.479Z,7.28
2023-02-09T06:59:04.362Z,6.55
2023-02-09T07:01:32.353Z,10.45
2023-02-09T07:04:00.525Z,8.00
2023-02-09T07:06:29.214Z,8.00
2023-02-09T07:08:57.408Z,14.27
2023-02-09T07:11:25.890Z,10.20
2023-02-09T07:13:54.018Z,13.35
2023-02-09T07:16:23.535Z,10.93
2023-02-09T07:18:54.579Z,13.00
2023-02-09T07:21:23.017Z,13.23
2023-02-09T07:23:52.752Z,16.40
2023-02-09T07:26:20.632Z,11.50
2023-02-09T07:28:49.587Z,17.08
2023-02-09T07:31:18.797Z,15.07
2023-02-09T07:33:48.410Z,13.90
2023-02-09T07:36:17.813Z,13.52
2023-02-09T07:38:46.130Z,11.65
2023-02-09T07:41:17.617Z,10.23
2023-02-09T07:43:46.316Z,10.93
2023-02-09T07:46:16.885Z,7.22
2023-02-09T07:48:45.109Z,8.38
2023-02-09T07:51:16.100Z,12.27
2023-02-09T07:53:44.151Z,8.13
2023-02-09T07:56:13.510Z,12.80
2023-02-09T07:58:41.609Z,9.65
2023-02-09T08:01:12.992Z,8.07
2023-02-09T08:03:43.565Z,7.30
2023-02-09T08:06:19.736Z,10.05
2023-02-09T08:08:49.025Z,6.22
2023-02-09T08:11:20.143Z,11.27
2023-02-09T08:13:49.223Z,15.38
2023-02-09T08:16:21.630Z,5.90
2023-02-09T08:18:55.144Z,8.25
2023-02-09T08:21:25.484Z,10.75
2023-02-09T08:23:59.286Z,9.65
2023-02-09T08:26:27.873Z,7.50
2023-02-09T08:28:57.722Z,7.00
2023-02-09T08:31:26.021Z,12.55
2023-02-09T08:33:54.908Z,10.15
2023-02-09T08:36:25.619Z,5.28
2023-02-09T08:38:53.983Z,7.20
2023-02-09T08:41:22.094Z,10.32
2023-02-09T08:43:51.800Z,9.90
2023-02-09T08:46:20.368Z,13.18
2023-02-09T08:48:48.614Z,10.48
2023-02-09T08:51:17.824Z,8.82
2023-02-09T08:53:52.676Z,8.00
2023-02-09T08:56:22.151Z,8.75
2023-02-09T08:58:51.156Z,4.22
2023-02-09T09:01:19.358Z,6.63
2023-02-09T09:03:47.725Z,8.18
2023-02-09T09:06:15.855Z,6.20
2023-02-09T09:08:44.052Z,6.25
2023-02-09T09:11:14.884Z,9.10
2023-02-09T09:13:45.424Z,8.48
2023-02-09T09:16:17.632Z,6.03
2023-02-09T09:18:46.364Z,7.95
2023-02-09T09:21:14.793Z,5.68
2023-02-09T09:23:42.967Z,8.95
2023-02-09T09:26:11.397Z,6.95
2023-02-09T09:28:40.733Z,9.02
2023-02-09T09:31:09.772Z,6.93
2023-02-09T09:33:38.539Z,11.68
2023-02-09T09:36:08.327Z,12.80
2023-02-09T09:38:37.815Z,8.65
2023-02-09T09:41:08.269Z,6.07
2023-02-09T09:43:38.889Z,9.05
2023-02-09T09:46:16.515Z,8.30
2023-02-09T09:48:47.221Z,10.82
2023-02-09T09:51:21.354Z,8.45
2023-02-09T09:53:52.670Z,8.02
2023-02-09T09:56:22.379Z,13.38
2023-02-09T09:58:52.026Z,10.02
2023-02-09T10:01:23.404Z,9.05
2023-02-09T10:03:51.522Z,10.55
2023-02-09T10:06:22.192Z,11.32
2023-02-09T10:08:56.186Z,10.15
2023-02-09T10:11:28.989Z,9.13
2023-02-09T10:13:59.015Z,11.43
2023-02-09T10:16:34.334Z,10.07
2023-02-09T10:19:04.617Z,8.80
2023-02-09T10:21:36.098Z,8.15
2023-02-09T10:24:12.495Z,8.30
2023-02-09T10:26:43.101Z,10.23
2023-02-09T10:29:25.164Z,12.45
2023-02-09T10:32:03.875Z,12.70
2023-02-09T10:34:42.205Z,16.77
2023-02-09T10:37:28.155Z,8.57
2023-02-09T10:40:16.217Z,8.70
2023-02-09T10:42:55.021Z,9.88
2023-02-09T10:45:28.190Z,8.70
2023-02-09T10:48:03.118Z,10.70
2023-02-09T10:50:31.306Z,11.07
2023-02-09T10:53:02.042Z,10.27
2023-02-09T10:55:36.092Z,13.68
2023-02-09T10:58:25.975Z,9.35
2023-02-09T11:01:01.658Z,12.10
2023-02-09T11:03:31.751Z,12.82
2023-02-09T11:06:03.172Z,13.35
2023-02-09T11:08:41.667Z,15.82
2023-02-09T11:11:20.804Z,12.38
2023-02-09T11:13:51.840Z,14.18
2023-02-09T11:16:34.907Z,21.40
2023-02-09T11:19:14.254Z,12.68
2023-02-09T11:21:56.648Z,19.10
2023-02-09T11:24:38.757Z,17.85
2023-02-09T11:27:19.658Z,14.68
2023-02-09T11:29:54.328Z,13.35
2023-02-09T11:32:28.361Z,14.88
2023-02-09T11:35:10.347Z,16.45
2023-02-09T11:37:51.952Z,11.18
2023-02-09T11:40:27.759Z,14.05
2023-02-09T11:43:19.044Z,14.25
2023-02-09T11:45:49.317Z,11.45
2023-02-09T11:48:26.079Z,13.57
2023-02-09T11:51:03.078Z,18.73
2023-02-09T11:53:40.988Z,22.52
2023-02-09T11:56:12.248Z,15.65
2023-02-09T11:58:50.946Z,18.05
2023-02-09T12:01:30.452Z,16.10
2023-02-09T12:04:15.797Z,17.30
2023-02-09T12:06:49.668Z,13.90
2023-02-09T12:12:09.322Z,15.30
2023-02-09T12:14:49.021Z,16.75
2023-02-09T12:17:22.665Z,13.88
2023-02-09T12:19:57.297Z,13.20
2023-02-09T12:22:51.867Z,16.80
2023-02-09T12:28:42.996Z,14.27
2023-02-09T12:31:14.643Z,14.85
2023-02-09T12:34:14.449Z,11.75
2023-02-09T12:37:20.300Z,18.10
2023-02-09T12:40:21.786Z,15.88
2023-02-09T12:43:27.949Z,17.02
2023-02-09T12:46:23.008Z,16.08
2023-02-09T12:49:07.799Z,16.88
2023-02-09T12:51:46.546Z,14.48
2023-02-09T12:54:37.861Z,16.38
2023-02-09T13:00:53.338Z,18.60
2023-02-09T13:03:26.080Z,18.52
2023-02-09T13:05:59.812Z,15.63
2023-02-09T13:08:46.619Z,15.80
2023-02-09T13:11:31.167Z,17.73
2023-02-09T13:14:03.397Z,15.45
2023-02-09T13:17:16.620Z,11.25
2023-02-09T13:20:09.019Z,16.10
2023-02-09T13:22:52.090Z,17.73
2023-02-09T13:25:27.854Z,19.08
2023-02-09T13:27:56.422Z,20.90
2023-02-09T13:30:30.139Z,16.98
2023-02-09T13:33:08.410Z,17.48
2023-02-09T13:35:44.052Z,16.27
2023-02-09T13:38:17.890Z,16.50
2023-02-09T13:40:48.661Z,19.33
2023-02-09T13:43:20.396Z,15.95
2023-02-09T13:45:49.922Z,15.90
2023-02-09T13:48:25.228Z,18.52
2023-02-09T13:50:55.375Z,15.48
2023-02-09T13:53:25.132Z,16.67
2023-02-09T13:55:55.985Z,17.00
2023-02-09T13:58:28.641Z,14.38
2023-02-09T14:01:00.503Z,14.43
2023-02-09T14:03:33.674Z,16.00
2023-02-09T14:06:09.088Z,16.08
2023-02-09T14:08:42.233Z,16.83
2023-02-09T14:11:33.349Z,19.53
2023-02-09T14:14:14.641Z,18.63
2023-02-09T14:16:53.394Z,20.83
2023-02-09T14:19:28.179Z,19.90
2023-02-09T14:21:56.720Z,17.67
2023-02-09T14:24:25.524Z,21.98
2023-02-09T14:26:56.607Z,15.45
2023-02-09T14:29:28.325Z,24.35
2023-02-09T14:31:57.883Z,22.05
2023-02-09T14:34:37.045Z,14.27
2023-02-09T14:37:32.865Z,18.45
2023-02-09T14:40:14.566Z,19.30
2023-02-09T14:43:05.574Z,25.23
2023-02-09T14:45:39.323Z,17.50
2023-02-09T14:48:18.792Z,15.60
2023-02-09T14:50:49.723Z,18.67
2023-02-09T14:53:19.202Z,15.13
2023-02-09T14:55:48.070Z,21.98
2023-02-09T14:58:24.194Z,18.42
2023-02-09T15:00:55.562Z,15.13
2023-02-09T15:03:24.346Z,17.95
2023-02-09T15:05:58.949Z,17.58
2023-02-09T15:08:30.473Z,21.17
2023-02-09T15:11:01.426Z,15.55
2023-02-09T15:13:32.642Z,19.38
2023-02-09T15:16:01.347Z,20.70
2023-02-09T15:18:29.595Z,21.15
2023-02-09T15:20:59.768Z,17.98
2023-02-09T15:23:28.165Z,20.63
2023-02-09T15:25:56.114Z,21.50
2023-02-09T15:28:28.714Z,21.27
2023-02-09T15:30:57.807Z,18.48
2023-02-09T15:33:27.030Z,19.85
2023-02-09T15:35:58.891Z,25.98
2023-02-09T15:38:29.493Z,21.05
2023-02-09T15:41:15.453Z,20.13
2023-02-09T15:44:01.867Z,18.50
2023-02-09T15:46:47.489Z,16.83
2023-02-09T15:49:15.889Z,21.00
2023-02-09T15:51:44.169Z,18.50
2023-02-09T15:54:19.579Z,22.58
2023-02-09T15:56:49.640Z,24.05
2023-02-09T15:59:21.417Z,20.08
2023-02-09T16:01:49.984Z,22.15
2023-02-09T16:04:18.693Z,17.23
2023-02-09T16:06:51.522Z,22.73
2023-02-09T16:09:24.258Z,21.10
2023-02-09T16:11:52.423Z,22.50
2023-02-09T16:14:23.546Z,25.88
2023-02-09T16:16:52.434Z,20.08
2023-02-09T16:19:22.056Z,27.10
2023-02-09T16:21:53.090Z,22.35
2023-02-09T16:24:30.615Z,17.85
2023-02-09T16:27:00.300Z,21.15
2023-02-09T16:29:29.735Z,28.30
2023-02-09T16:31:59.105Z,23.95
2023-02-09T16:34:27.273Z,17.48
2023-02-09T16:36:55.626Z,23.27
2023-02-09T16:39:25.969Z,23.88
2023-02-09T16:41:54.387Z,22.08
2023-02-09T16:44:24.553Z,18.35
2023-02-09T16:46:55.517Z,23.33
2023-02-09T16:49:35.403Z,21.83
2023-02-09T16:52:07.565Z,21.77
2023-02-09T16:54:42.890Z,20.33
2023-02-09T16:57:15.121Z,23.05
2023-02-09T16:59:43.813Z,21.15
2023-02-09T17:02:36.214Z,19.40
2023-02-09T17:05:16.341Z,21.15
2023-02-09T17:07:53.997Z,26.95
2023-02-09T17:10:27.177Z,27.17
2023-02-09T17:12:55.331Z,27.77
2023-02-09T17:15:31.543Z,26.52
2023-02-09T17:18:04.972Z,25.92
2023-02-09T17:20:38.992Z,27.42
2023-02-09T17:23:07.620Z,26.92
2023-02-09T17:25:38.321Z,31.35
2023-02-09T17:28:06.854Z,21.33
2023-02-09T17:30:35.901Z,26.92
2023-02-09T17:33:06.593Z,29.23
2023-02-09T17:36:22.530Z,32.90
2023-02-09T17:38:30.465Z,24.38
2023-02-09T17:41:02.512Z,25.88
2023-02-09T17:43:40.655Z,20.58
2023-02-09T17:46:10.496Z,27.92
2023-02-09T17:48:39.933Z,24.05
2023-02-09T17:51:10.798Z,25.77
2023-02-09T17:53:41.225Z,34.28
2023-02-09T17:56:12.029Z,33.33
2023-02-09T17:58:44.656Z,27.83
2023-02-09T18:01:26.542Z,24.75
2023-02-09T18:03:55.308Z,22.00
2023-02-09T18:06:30.035Z,24.48
2023-02-09T18:08:58.617Z,25.77
2023-02-09T18:11:42.078Z,26.25
2023-02-09T18:14:13.311Z,23.83
2023-02-09T18:16:43.206Z,25.67
2023-02-09T18:19:12.239Z,26.95
2023-02-09T18:21:47.800Z,38.50
2023-02-09T18:24:16.327Z,27.80
2023-02-09T18:26:48.031Z,34.22
2023-02-09T18:29:16.700Z,30.63
2023-02-09T18:31:46.721Z,23.25
2023-02-09T18:34:18.309Z,33.50
2023-02-09T18:36:47.004Z,33.35
2023-02-09T18:39:16.419Z,30.92
2023-02-09T18:41:48.486Z,39.60
2023-02-09T18:44:16.651Z,29.50
2023-02-09T18:46:44.916Z,26.05
2023-02-09T18:49:14.291Z,32.47
2023-02-09T18:51:43.133Z,29.50
2023-02-09T18:54:11.372Z,30.30
2023-02-09T18:56:40.306Z,34.05
2023-02-09T18:59:10.268Z,33.90
2023-02-09T19:01:42.196Z,38.50
2023-02-09T19:04:10.896Z,30.48
2023-02-09T19:06:40.697Z,34.05
2023-02-09T19:09:09.201Z,29.38
2023-02-09T19:11:37.641Z,31.70
2023-02-09T19:14:23.457Z,35.60
2023-02-09T19:16:53.468Z,34.38
2023-02-09T19:19:22.715Z,33.67
2023-02-09T19:21:52.296Z,30.20
2023-02-09T19:24:20.804Z,30.70
2023-02-09T19:26:49.038Z,26.55
2023-02-09T19:29:18.518Z,30.83
2023-02-09T19:31:48.679Z,29.83
2023-02-09T19:34:18.264Z,29.65
2023-02-09T19:36:48.426Z,32.90
2023-02-09T19:39:18.197Z,28.20
2023-02-09T19:41:47.308Z,43.85
2023-02-09T19:44:24.167Z,37.72
2023-02-09T19:46:52.564Z,36.58
2023-02-09T19:49:24.261Z,44.45
2023-02-09T19:51:52.323Z,38.45
2023-02-09T19:54:20.379Z,34.58
2023-02-09T19:56:48.658Z,36.55
2023-02-09T19:59:23.781Z,37.85
2023-02-09T20:01:52.058Z,32.75
2023-02-09T20:04:23.803Z,38.85
2023-02-09T20:06:52.604Z,38.75
2023-02-09T20:09:21.314Z,30.48
2023-02-09T20:14:17.763Z,37.60
2023-02-09T20:16:46.056Z,39.20
2023-02-09T20:19:14.509Z,36.33
2023-02-09T20:21:44.320Z,35.33
2023-02-09T20:24:13.430Z,42.45
2023-02-09T20:26:42.062Z,32.33
2023-02-09T20:29:11.280Z,31.52
2023-02-09T20:31:42.399Z,29.70
2023-02-09T20:34:15.053Z,34.13
2023-02-09T20:36:48.722Z,33.45
2023-02-09T20:39:19.053Z,38.30
2023-02-09T20:42:04.460Z,38.55
2023-02-09T20:44:50.407Z,37.80
2023-02-09T20:47:19.896Z,35.22
2023-02-09T20:49:47.998Z,31.63
2023-02-09T20:52:17.901Z,32.40
2023-02-09T20:54:46.073Z,29.98
2023-02-09T20:57:14.367Z,34.35
2023-02-09T20:59:42.321Z,34.00
2023-02-09T21:02:11.790Z,42.47
2023-02-09T21:04:39.988Z,40.17
2023-02-09T21:07:08.009Z,63.17
2023-02-09T21:09:39.190Z,41.28
2023-02-09T21:12:07.473Z,57.35
2023-02-09T21:14:42.212Z,45.20
2023-02-09T21:17:11.237Z,43.88
2023-02-09T21:19:39.407Z,44.40
2023-02-09T21:22:07.823Z,38.67
2023-02-09T21:24:38.020Z,52.15
2023-02-09T21:27:06.777Z,63.10
2023-02-09T21:29:35.551Z,42.42
2023-02-09T21:32:05.202Z,39.75
2023-02-09T21:34:33.983Z,52.70
2023-02-09T21:37:02.144Z,40.35
2023-02-09T21:39:32.062Z,34.38
2023-02-09T21:42:19.048Z,32.72
2023-02-09T21:44:47.466Z,33.55
2023-02-09T21:47:15.604Z,32.15
2023-02-09T21:49:43.550Z,38.60
2023-02-09T21:52:11.673Z,33.25
2023-02-09T21:54:40.576Z,42.53
2023-02-09T21:57:10.313Z,35.58
2023-02-09T21:59:38.783Z,34.60
2023-02-09T22:02:06.815Z,31.73
2023-02-09T22:04:35.049Z,41.03
2023-02-09T22:07:03.093Z,31.63
2023-02-09T22:09:31.945Z,32.28
2023-02-09T22:11:59.987Z,31.45
2023-02-09T22:14:30.048Z,30.48
2023-02-09T22:16:58.612Z,28.33
2023-02-09T22:19:27.067Z,35.22
2023-02-09T22:21:57.691Z,32.30
2023-02-09T22:24:26.268Z,26.52
2023-02-09T22:26:54.500Z,36.15
2023-02-09T22:29:22.841Z,36.13
2023-02-09T22:31:52.215Z,35.22
2023-02-09T22:34:20.389Z,33.83
2023-02-09T22:36:51.938Z,34.50
2023-02-09T22:39:19.818Z,27.15
2023-02-09T22:41:48.535Z,32.30
2023-02-09T22:44:17.724Z,29.98
2023-02-09T22:46:47.468Z,23.95
2023-02-09T22:49:19.112Z,33.78
2023-02-09T22:51:49.695Z,22.88
2023-02-09T22:54:21.236Z,28.65
2023-02-09T22:56:49.632Z,32.70
2023-02-09T22:59:20.076Z,27.73
2023-02-09T23:01:49.246Z,25.50
2023-02-09T23:04:18.769Z,22.00
2023-02-09T23:06:47.037Z,29.63
2023-02-09T23:09:16.361Z,25.10
2023-02-09T23:11:45.379Z,24.90
2023-02-09T23:14:14.138Z,26.73
2023-02-09T23:16:43.674Z,31.55
2023-02-09T23:19:15.618Z,30.88
2023-02-09T23:21:46.659Z,25.90
2023-02-09T23:24:15.831Z,29.67
2023-02-09T23:26:44.213Z,32.70
2023-02-09T23:29:15.297Z,35.80
2023-02-09T23:31:44.561Z,23.80
2023-02-09T23:34:15.458Z,27.90
2023-02-09T23:36:45.735Z,33.97
2023-02-09T23:39:16.933Z,31.38
2023-02-09T23:41:45.265Z,21.95
2023-02-09T23:44:13.771Z,27.23
2023-02-09T23:46:44.769Z,29.13
2023-02-09T23:49:12.951Z,34.78
2023-02-09T23:51:40.944Z,26.67
2023-02-09T23:54:11.972Z,29.75
2023-02-09T23:56:42.543Z,29.95
2023-02-09T23:59:14.607Z,29.52
